createdAt,value
2022-10-31T00:01:41.494Z,95998.97
2022-10-31T00:04:09.392Z,96002.06
2022-10-31T00:06:37.166Z,95995.13
2022-10-31T00:09:06.863Z,96004.19
2022-10-31T00:11:35.250Z,96003.97
2022-10-31T00:14:03.105Z,96005.88
2022-10-31T00:16:31.760Z,96003.56
2022-10-31T00:19:01.309Z,96002.56
2022-10-31T00:21:30.781Z,96003.25
2022-10-31T00:23:59.549Z,96006.31
2022-10-31T00:26:29.193Z,96002.97
2022-10-31T00:28:56.903Z,96005.41
2022-10-31T00:31:25.193Z,96003.09
2022-10-31T00:33:52.913Z,95998.31
2022-10-31T00:36:21.681Z,96006.34
2022-10-31T00:38:49.966Z,96002.50
2022-10-31T00:41:19.339Z,96001.91
2022-10-31T00:43:48.701Z,96007.91
2022-10-31T00:46:16.531Z,96014.31
2022-10-31T00:48:44.604Z,96021.00
2022-10-31T00:51:12.481Z,96012.75
2022-10-31T00:53:42.457Z,96010.75
2022-10-31T00:56:10.181Z,96011.22
2022-10-31T00:58:38.413Z,96016.28
2022-10-31T01:01:07.682Z,96011.03
2022-10-31T01:03:37.197Z,96006.06
2022-10-31T01:06:07.916Z,96011.53
2022-10-31T01:08:35.661Z,96013.97
2022-10-31T01:11:07.849Z,96008.31
2022-10-31T01:13:36.436Z,96010.00
2022-10-31T01:16:06.302Z,96012.34
2022-10-31T01:18:36.002Z,96001.44
2022-10-31T01:21:07.063Z,96006.22
2022-10-31T01:23:35.483Z,96006.19
2022-10-31T01:26:06.027Z,96008.78
2022-10-31T01:28:34.436Z,96008.91
2022-10-31T01:31:03.532Z,96005.78
2022-10-31T01:33:31.981Z,96013.16
2022-10-31T01:36:01.001Z,96003.91
2022-10-31T01:38:29.588Z,96007.66
2022-10-31T01:40:57.222Z,96006.16
2022-10-31T01:43:25.081Z,96002.88
2022-10-31T01:45:56.006Z,96011.81
2022-10-31T01:48:29.241Z,96008.31
2022-10-31T01:50:57.520Z,96010.22
2022-10-31T01:53:27.140Z,96014.25
2022-10-31T01:55:55.256Z,96012.59
2022-10-31T01:58:27.097Z,96004.88
2022-10-31T02:01:03.313Z,96012.44
2022-10-31T02:03:35.584Z,96005.19
2022-10-31T02:06:08.205Z,96007.50
2022-10-31T02:08:39.620Z,96003.25
2022-10-31T02:11:09.311Z,96006.56
2022-10-31T02:13:39.709Z,96003.63
2022-10-31T02:16:11.625Z,96001.47
2022-10-31T02:18:39.540Z,96002.09
2022-10-31T02:21:17.026Z,95999.63
2022-10-31T02:24:33.437Z,95997.66
2022-10-31T02:27:13.435Z,95995.38
2022-10-31T02:30:17.377Z,96002.00
2022-10-31T02:33:04.046Z,95992.59
2022-10-31T02:35:48.551Z,96007.56
2022-10-31T02:38:27.870Z,95994.38
2022-10-31T02:41:06.725Z,95999.19
2022-10-31T02:43:46.432Z,96000.19
2022-10-31T02:46:19.714Z,95995.38
2022-10-31T02:48:53.189Z,95982.22
2022-10-31T02:51:21.770Z,95988.13
2022-10-31T02:53:50.058Z,95996.69
2022-10-31T02:56:19.891Z,95994.38
2022-10-31T02:58:51.850Z,95996.16
2022-10-31T03:01:52.214Z,95998.81
2022-10-31T03:05:00.157Z,95996.63
2022-10-31T03:07:37.654Z,95992.81
2022-10-31T03:10:16.756Z,95996.13
2022-10-31T03:12:55.010Z,95993.31
2022-10-31T03:15:27.359Z,95999.25
2022-10-31T03:18:00.870Z,95999.59
2022-10-31T03:20:36.787Z,95997.97
2022-10-31T03:23:09.187Z,96005.06
2022-10-31T03:25:38.912Z,96007.22
2022-10-31T03:28:12.420Z,96007.41
2022-10-31T03:30:44.741Z,96000.31
2022-10-31T03:33:19.294Z,96002.00
2022-10-31T03:35:54.303Z,95996.75
2022-10-31T03:38:24.391Z,96001.66
2022-10-31T03:40:57.964Z,95996.41
2022-10-31T03:43:31.567Z,95997.03
2022-10-31T03:45:59.926Z,95996.56
2022-10-31T03:48:29.493Z,95998.88
2022-10-31T03:51:07.381Z,96002.38
2022-10-31T03:53:41.185Z,96001.56
2022-10-31T03:56:19.827Z,96004.00
2022-10-31T03:58:55.162Z,96001.38
2022-10-31T04:01:27.463Z,96000.72
2022-10-31T04:03:56.262Z,96005.31
2022-10-31T04:06:27.553Z,96002.53
2022-10-31T04:08:59.467Z,95997.75
2022-10-31T04:11:31.798Z,96002.69
2022-10-31T04:14:19.693Z,96000.06
2022-10-31T04:16:47.760Z,95996.59
2022-10-31T04:19:16.834Z,95991.34
2022-10-31T04:21:45.909Z,95993.81
2022-10-31T04:24:13.832Z,95980.00
2022-10-31T04:26:42.280Z,95983.28
2022-10-31T04:29:10.479Z,95976.03
2022-10-31T04:31:39.651Z,95984.25
2022-10-31T04:34:08.739Z,95976.38
2022-10-31T04:36:36.404Z,95989.03
2022-10-31T04:39:06.237Z,95984.28
2022-10-31T04:41:41.304Z,95983.63
2022-10-31T04:44:15.792Z,95989.53
2022-10-31T04:46:43.720Z,95983.78
2022-10-31T04:49:12.448Z,95981.66
2022-10-31T04:51:40.140Z,95983.47
2022-10-31T04:54:11.414Z,95983.94
2022-10-31T04:56:57.832Z,95977.38
2022-10-31T04:59:26.480Z,95976.72
2022-10-31T05:01:55.482Z,95979.03
2022-10-31T05:04:33.293Z,95976.72
2022-10-31T05:07:00.958Z,95975.25
2022-10-31T05:09:30.353Z,95981.16
2022-10-31T05:11:58.034Z,95979.19
2022-10-31T05:14:48.584Z,95976.56
2022-10-31T05:17:35.329Z,95976.06
2022-10-31T05:20:26.085Z,95976.38
2022-10-31T05:23:26.685Z,95970.78
2022-10-31T05:25:56.780Z,95967.34
2022-10-31T05:28:25.227Z,95972.09
2022-10-31T05:30:53.182Z,95965.84
2022-10-31T05:33:22.152Z,95971.13
2022-10-31T05:36:08.882Z,95961.56
2022-10-31T05:38:49.837Z,95961.06
2022-10-31T05:41:26.459Z,95959.59
2022-10-31T05:44:03.780Z,95966.19
2022-10-31T05:49:33.632Z,95968.75
2022-10-31T05:52:20.803Z,95960.53
2022-10-31T05:54:56.224Z,95962.84
2022-10-31T05:57:26.049Z,95966.47
2022-10-31T05:59:55.185Z,95964.16
2022-10-31T06:02:25.033Z,95954.34
2022-10-31T06:05:18.588Z,95955.66
2022-10-31T06:07:47.843Z,95947.78
2022-10-31T06:10:16.706Z,95958.78
2022-10-31T06:12:46.795Z,95949.91
2022-10-31T06:15:31.115Z,95951.25
2022-10-31T06:18:01.931Z,95949.75
2022-10-31T06:20:34.428Z,95958.16
2022-10-31T06:23:05.882Z,95960.91
2022-10-31T06:25:35.002Z,95958.97
2022-10-31T06:28:07.275Z,95955.00
2022-10-31T06:30:54.312Z,95950.41
2022-10-31T06:33:22.871Z,95955.19
2022-10-31T06:35:58.945Z,95953.84
2022-10-31T06:38:28.349Z,95950.22
2022-10-31T06:40:56.856Z,95952.66
2022-10-31T06:43:29.166Z,95951.66
2022-10-31T06:46:24.545Z,95951.16
2022-10-31T06:49:12.833Z,95961.00
2022-10-31T06:51:51.039Z,95952.25
2022-10-31T06:54:19.678Z,95961.78
2022-10-31T06:56:48.144Z,95962.41
2022-10-31T06:59:17.751Z,95970.59
2022-10-31T07:02:14.004Z,95968.22
2022-10-31T07:04:44.204Z,95972.78
2022-10-31T07:07:15.284Z,95980.78
2022-10-31T07:09:42.983Z,95976.81
2022-10-31T07:12:12.500Z,95969.75
2022-10-31T07:14:47.088Z,95981.69
2022-10-31T07:17:14.762Z,95971.81
2022-10-31T07:19:45.456Z,95977.78
2022-10-31T07:22:15.093Z,95973.19
2022-10-31T07:24:44.952Z,95966.38
2022-10-31T07:27:41.726Z,95963.88
2022-10-31T07:30:14.825Z,95970.41
2022-10-31T07:32:44.157Z,95967.59
2022-10-31T07:35:15.900Z,95967.38
2022-10-31T07:37:48.718Z,95970.84
2022-10-31T07:40:18.241Z,95966.16
2022-10-31T07:42:47.582Z,95964.75
2022-10-31T07:45:36.560Z,95968.25
2022-10-31T07:48:22.985Z,95965.31
2022-10-31T07:51:09.957Z,95964.75
2022-10-31T07:53:56.111Z,95959.72
2022-10-31T07:56:26.992Z,95963.47
2022-10-31T07:58:54.893Z,95959.06
2022-10-31T08:01:24.549Z,95959.34
2022-10-31T08:04:12.140Z,95957.56
2022-10-31T08:07:06.768Z,95953.56
2022-10-31T08:09:37.464Z,95950.94
2022-10-31T08:12:15.837Z,95952.81
2022-10-31T08:14:43.735Z,95962.00
2022-10-31T08:17:13.658Z,95956.50
2022-10-31T08:19:51.746Z,95958.88
2022-10-31T08:22:22.936Z,95952.56
2022-10-31T08:24:53.189Z,95953.38
2022-10-31T08:27:21.830Z,95947.25
2022-10-31T08:29:49.557Z,95945.84
2022-10-31T08:32:18.565Z,95947.25
2022-10-31T08:35:05.531Z,95946.81
2022-10-31T08:37:54.316Z,95945.00
2022-10-31T08:40:22.026Z,95933.66
2022-10-31T08:42:58.399Z,95937.19
2022-10-31T08:45:26.182Z,95925.00
2022-10-31T08:47:59.346Z,95928.91
2022-10-31T08:50:28.654Z,95926.19
2022-10-31T08:53:05.651Z,95917.84
2022-10-31T08:55:36.379Z,95913.00
2022-10-31T08:58:08.954Z,95918.94
2022-10-31T09:00:46.329Z,95913.75
2022-10-31T09:03:23.623Z,95913.91
2022-10-31T09:05:52.964Z,95906.84
2022-10-31T09:08:20.684Z,95907.84
2022-10-31T09:10:49.563Z,95910.19
2022-10-31T09:13:27.847Z,95904.69
2022-10-31T09:16:19.261Z,95899.63
2022-10-31T09:18:48.389Z,95898.47
2022-10-31T09:21:18.060Z,95895.13
2022-10-31T09:23:48.300Z,95899.22
2022-10-31T09:26:16.863Z,95898.84
2022-10-31T09:28:58.574Z,95896.38
2022-10-31T09:31:27.021Z,95897.44
2022-10-31T09:34:08.581Z,95892.38
2022-10-31T09:36:36.711Z,95896.09
2022-10-31T09:39:05.844Z,95889.88
2022-10-31T09:41:57.161Z,95896.13
2022-10-31T09:44:40.997Z,95890.13
2022-10-31T09:47:21.938Z,95885.06
2022-10-31T09:50:16.419Z,95886.06
2022-10-31T09:52:53.195Z,95876.63
2022-10-31T09:55:27.369Z,95880.03
2022-10-31T09:57:55.585Z,95881.09
2022-10-31T10:00:24.484Z,95884.41
2022-10-31T10:02:58.935Z,95881.13
2022-10-31T10:05:35.208Z,95880.19
2022-10-31T10:08:13.584Z,95878.00
2022-10-31T10:11:14.207Z,95880.69
2022-10-31T10:14:09.964Z,95872.28
2022-10-31T10:16:58.327Z,95884.91
2022-10-31T10:19:41.099Z,95881.84
2022-10-31T10:22:17.821Z,95875.09
2022-10-31T10:25:04.071Z,95873.13
2022-10-31T10:27:45.074Z,95874.06
2022-10-31T10:30:17.103Z,95874.88
2022-10-31T10:32:51.084Z,95876.00
2022-10-31T10:35:27.836Z,95861.09
2022-10-31T10:38:01.251Z,95859.13
2022-10-31T10:40:30.100Z,95851.63
2022-10-31T10:43:22.884Z,95854.25
2022-10-31T10:46:26.005Z,95852.47
2022-10-31T10:49:01.202Z,95848.78
2022-10-31T10:51:58.207Z,95843.50
2022-10-31T10:55:02.338Z,95834.34
2022-10-31T10:57:40.641Z,95832.97
2022-10-31T11:00:19.944Z,95844.41
2022-10-31T11:02:49.166Z,95828.53
2022-10-31T11:05:25.971Z,95835.91
2022-10-31T11:07:54.051Z,95823.47
2022-10-31T11:10:23.100Z,95833.38
2022-10-31T11:13:04.177Z,95826.97
2022-10-31T11:15:35.771Z,95821.31
2022-10-31T11:18:03.754Z,95824.34
2022-10-31T11:20:35.445Z,95821.75
2022-10-31T11:23:20.172Z,95820.75
2022-10-31T11:25:55.855Z,95817.44
2022-10-31T11:28:24.286Z,95823.28
2022-10-31T11:30:54.863Z,95814.13
2022-10-31T11:33:29.001Z,95811.72
2022-10-31T11:35:58.428Z,95811.47
2022-10-31T11:38:32.247Z,95809.38
2022-10-31T11:41:07.473Z,95815.06
2022-10-31T11:43:35.603Z,95808.88
2022-10-31T11:46:11.423Z,95802.72
2022-10-31T11:48:40.336Z,95804.44
2022-10-31T11:51:09.326Z,95805.56
2022-10-31T11:53:37.235Z,95795.75
2022-10-31T11:56:12.468Z,95795.56
2022-10-31T11:58:41.519Z,95796.19
2022-10-31T12:01:25.715Z,95786.69
2022-10-31T12:04:01.135Z,95781.91
2022-10-31T12:06:33.601Z,95783.34
2022-10-31T12:09:02.409Z,95767.41
2022-10-31T12:11:45.044Z,95774.13
2022-10-31T12:14:24.987Z,95766.56
2022-10-31T12:16:57.908Z,95762.00
2022-10-31T12:19:35.654Z,95763.63
2022-10-31T12:22:10.773Z,95760.41
2022-10-31T12:24:50.434Z,95754.97
2022-10-31T12:27:30.785Z,95757.59
2022-10-31T12:30:17.473Z,95755.31
2022-10-31T12:33:04.004Z,95756.25
2022-10-31T12:35:42.487Z,95754.59
2022-10-31T12:38:39.560Z,95741.34
2022-10-31T12:41:23.056Z,95741.88
2022-10-31T12:43:59.204Z,95741.56
2022-10-31T12:46:37.955Z,95739.31
2022-10-31T12:49:19.412Z,95726.50
2022-10-31T12:51:58.908Z,95734.69
2022-10-31T12:54:48.286Z,95728.09
2022-10-31T12:57:25.660Z,95717.47
2022-10-31T13:00:02.075Z,95720.50
2022-10-31T13:02:33.342Z,95714.72
2022-10-31T13:05:05.016Z,95712.50
2022-10-31T13:07:39.642Z,95709.72
2022-10-31T13:10:18.356Z,95696.28
2022-10-31T13:12:49.169Z,95703.56
2022-10-31T13:15:21.048Z,95701.75
2022-10-31T13:17:53.694Z,95697.00
2022-10-31T13:20:27.646Z,95702.50
2022-10-31T13:23:05.308Z,95696.69
2022-10-31T13:25:45.241Z,95697.00
2022-10-31T13:28:27.754Z,95704.19
2022-10-31T13:30:56.790Z,95688.06
2022-10-31T13:33:30.780Z,95683.31
2022-10-31T13:36:13.799Z,95693.75
2022-10-31T13:38:48.964Z,95686.34
2022-10-31T13:41:31.961Z,95684.63
2022-10-31T13:44:04.243Z,95682.28
2022-10-31T13:46:40.642Z,95675.69
2022-10-31T13:49:28.360Z,95676.09
2022-10-31T13:52:08.200Z,95677.50
2022-10-31T13:54:38.093Z,95675.78
2022-10-31T13:57:09.458Z,95683.78
2022-10-31T13:59:40.068Z,95674.06
2022-10-31T14:02:17.200Z,95675.53
2022-10-31T14:04:49.424Z,95671.00
2022-10-31T14:07:19.755Z,95671.97
2022-10-31T14:09:56.731Z,95670.06
2022-10-31T14:12:29.117Z,95663.06
2022-10-31T14:15:00.935Z,95661.44
2022-10-31T14:17:41.999Z,95644.28
2022-10-31T14:20:36.010Z,95644.84
2022-10-31T14:23:45.484Z,95641.59
2022-10-31T14:26:32.202Z,95648.28
2022-10-31T14:29:01.844Z,95642.03
2022-10-31T14:31:40.435Z,95640.47
2022-10-31T14:34:24.500Z,95640.78
2022-10-31T14:37:04.399Z,95641.09
2022-10-31T14:39:38.310Z,95632.09
2022-10-31T14:42:27.401Z,95630.31
2022-10-31T14:45:12.069Z,95627.88
2022-10-31T14:47:47.145Z,95629.38
2022-10-31T14:50:33.724Z,95630.88
2022-10-31T14:53:05.700Z,95621.69
2022-10-31T14:55:34.268Z,95620.66
2022-10-31T14:58:05.177Z,95624.94
2022-10-31T15:00:35.441Z,95621.25
2022-10-31T15:03:13.633Z,95627.94
2022-10-31T15:05:50.223Z,95627.81
2022-10-31T15:08:32.057Z,95614.84
2022-10-31T15:10:59.833Z,95611.25
2022-10-31T15:13:27.731Z,95616.31
2022-10-31T15:15:57.324Z,95617.03
2022-10-31T15:18:27.322Z,95614.38
2022-10-31T15:20:58.413Z,95612.19
2022-10-31T15:23:28.134Z,95619.91
2022-10-31T15:26:01.600Z,95608.56
2022-10-31T15:28:30.094Z,95611.63
2022-10-31T15:30:59.293Z,95599.94
2022-10-31T15:33:36.549Z,95599.47
2022-10-31T15:36:07.775Z,95592.69
2022-10-31T15:38:35.845Z,95600.97
2022-10-31T15:41:06.748Z,95600.69
2022-10-31T15:43:37.780Z,95598.78
2022-10-31T15:46:09.386Z,95607.34
2022-10-31T15:48:38.224Z,95599.84
2022-10-31T15:51:07.580Z,95603.53
2022-10-31T15:53:44.168Z,95598.13
2022-10-31T15:56:15.124Z,95590.81
2022-10-31T15:58:45.902Z,95602.69
2022-10-31T16:01:23.716Z,95597.59
2022-10-31T16:04:03.434Z,95602.03
2022-10-31T16:06:33.764Z,95598.66
2022-10-31T16:09:01.819Z,95595.41
2022-10-31T16:11:37.198Z,95597.81
2022-10-31T16:14:09.587Z,95601.13
2022-10-31T16:16:44.348Z,95602.50
2022-10-31T16:19:26.474Z,95595.75
2022-10-31T16:21:57.676Z,95596.53
2022-10-31T16:24:29.640Z,95598.94
2022-10-31T16:27:03.799Z,95603.38
2022-10-31T16:29:37.916Z,95596.38
2022-10-31T16:32:06.283Z,95596.13
2022-10-31T16:34:34.209Z,95605.69
2022-10-31T16:37:03.887Z,95596.91
2022-10-31T16:39:32.174Z,95603.34
2022-10-31T16:41:59.860Z,95606.09
2022-10-31T16:44:28.424Z,95604.75
2022-10-31T16:47:10.966Z,95604.44
2022-10-31T16:49:39.163Z,95605.31
2022-10-31T16:52:08.181Z,95604.38
2022-10-31T16:54:36.507Z,95607.09
2022-10-31T16:57:06.469Z,95612.09
2022-10-31T16:59:34.872Z,95607.06
2022-10-31T17:02:04.946Z,95603.63
2022-10-31T17:04:32.753Z,95609.63
2022-10-31T17:07:00.413Z,95609.88
2022-10-31T17:09:29.824Z,95609.56
2022-10-31T17:11:57.813Z,95603.94
2022-10-31T17:14:25.956Z,95606.63
2022-10-31T17:16:53.630Z,95602.81
2022-10-31T17:19:21.691Z,95599.59
2022-10-31T17:21:49.391Z,95608.84
2022-10-31T17:24:17.499Z,95617.50
2022-10-31T17:26:47.166Z,95618.78
2022-10-31T17:29:15.647Z,95617.75
2022-10-31T17:31:43.644Z,95621.69
2022-10-31T17:34:11.601Z,95618.69
2022-10-31T17:36:39.259Z,95608.53
2022-10-31T17:39:09.892Z,95617.13
2022-10-31T17:41:37.523Z,95612.66
2022-10-31T17:44:07.760Z,95613.88
2022-10-31T17:46:35.420Z,95620.44
2022-10-31T17:49:05.335Z,95625.53
2022-10-31T17:51:32.979Z,95616.56
2022-10-31T17:54:01.221Z,95623.31
2022-10-31T17:56:28.867Z,95617.63
2022-10-31T17:58:58.237Z,95620.88
2022-10-31T18:01:27.443Z,95615.56
2022-10-31T18:03:55.650Z,95621.47
2022-10-31T18:06:23.261Z,95611.25
2022-10-31T18:08:51.167Z,95620.03
2022-10-31T18:11:22.005Z,95621.41
2022-10-31T18:13:56.472Z,95617.56
2022-10-31T18:16:24.438Z,95619.59
2022-10-31T18:18:56.336Z,95625.31
2022-10-31T18:21:23.987Z,95624.63
2022-10-31T18:23:55.464Z,95612.59
2022-10-31T18:26:23.522Z,95619.13
2022-10-31T18:28:51.888Z,95619.50
2022-10-31T18:31:20.150Z,95619.72
2022-10-31T18:33:48.482Z,95614.63
2022-10-31T18:36:17.516Z,95611.53
2022-10-31T18:38:46.219Z,95616.84
2022-10-31T18:41:15.118Z,95616.88
2022-10-31T18:43:43.273Z,95613.81
2022-10-31T18:46:13.977Z,95613.63
2022-10-31T18:48:42.770Z,95610.34
2022-10-31T18:51:13.268Z,95610.16
2022-10-31T18:53:42.906Z,95614.44
2022-10-31T18:56:12.254Z,95605.84
2022-10-31T18:58:40.309Z,95605.03
2022-10-31T19:01:08.913Z,95604.41
2022-10-31T19:03:37.616Z,95600.53
2022-10-31T19:06:07.237Z,95601.56
2022-10-31T19:08:35.268Z,95599.50
2022-10-31T19:11:09.247Z,95596.03
2022-10-31T19:13:37.701Z,95591.75
2022-10-31T19:16:07.581Z,95599.09
2022-10-31T19:18:35.410Z,95592.16
2022-10-31T19:21:07.044Z,95584.00
2022-10-31T19:23:34.732Z,95583.59
2022-10-31T19:26:03.166Z,95590.06
2022-10-31T19:28:34.063Z,95587.63
2022-10-31T19:31:02.366Z,95594.09
2022-10-31T19:33:34.993Z,95594.78
2022-10-31T19:36:08.508Z,95594.38
2022-10-31T19:38:36.687Z,95591.91
2022-10-31T19:41:06.682Z,95594.69
2022-10-31T19:43:36.039Z,95601.00
2022-10-31T19:46:05.816Z,95591.44
2022-10-31T19:48:37.021Z,95589.41
2022-10-31T19:51:08.848Z,95601.22
2022-10-31T19:53:37.176Z,95598.38
2022-10-31T19:56:06.029Z,95604.47
2022-10-31T19:58:35.003Z,95600.41
2022-10-31T20:01:08.397Z,95602.00
2022-10-31T20:03:37.265Z,95584.00
2022-10-31T20:06:05.666Z,95591.75
2022-10-31T20:08:39.499Z,95592.41
2022-10-31T20:11:07.737Z,95592.81
2022-10-31T20:13:36.745Z,95583.25
2022-10-31T20:16:08.103Z,95586.31
2022-10-31T20:18:36.696Z,95586.75
2022-10-31T20:21:06.278Z,95598.38
2022-10-31T20:23:34.334Z,95587.84
2022-10-31T20:26:02.453Z,95594.59
2022-10-31T20:28:32.018Z,95589.72
2022-10-31T20:31:01.983Z,95584.88
2022-10-31T20:33:29.671Z,95584.47
2022-10-31T20:35:57.396Z,95589.75
2022-10-31T20:38:25.267Z,95593.66
2022-10-31T20:40:53.495Z,95586.66
2022-10-31T20:43:21.156Z,95585.84
2022-10-31T20:45:49.206Z,95593.53
2022-10-31T20:48:19.919Z,95594.13
2022-10-31T20:50:47.572Z,95602.47
2022-10-31T20:53:15.205Z,95595.41
2022-10-31T20:55:43.057Z,95588.50
2022-10-31T20:58:10.785Z,95604.75
2022-10-31T21:00:38.807Z,95586.38
2022-10-31T21:03:06.568Z,95592.09
2022-10-31T21:05:35.898Z,95591.13
2022-10-31T21:08:03.571Z,95592.97
2022-10-31T21:10:31.253Z,95590.94
2022-10-31T21:12:59.121Z,95591.72
2022-10-31T21:15:27.012Z,95589.66
2022-10-31T21:17:55.646Z,95591.25
2022-10-31T21:20:23.740Z,95587.91
2022-10-31T21:22:54.461Z,95579.31
2022-10-31T21:25:22.432Z,95581.47
2022-10-31T21:27:50.081Z,95574.28
2022-10-31T21:30:18.195Z,95580.72
2022-10-31T21:32:45.895Z,95583.50
2022-10-31T21:35:13.912Z,95576.97
2022-10-31T21:37:41.532Z,95576.47
2022-10-31T21:40:12.138Z,95571.13
2022-10-31T21:42:39.800Z,95575.72
2022-10-31T21:45:08.737Z,95571.25
2022-10-31T21:47:36.408Z,95566.50
2022-10-31T21:50:04.727Z,95577.41
2022-10-31T21:52:32.475Z,95579.63
2022-10-31T21:54:59.149Z,95581.03
2022-10-31T21:57:28.113Z,95575.41
2022-10-31T21:59:55.742Z,95583.94
2022-10-31T22:02:23.386Z,95586.84
2022-10-31T22:04:51.827Z,95577.56
2022-10-31T22:07:19.906Z,95578.47
2022-10-31T22:09:48.112Z,95565.50
2022-10-31T22:12:15.968Z,95568.09
2022-10-31T22:14:45.167Z,95568.69
2022-10-31T22:17:12.770Z,95570.34
2022-10-31T22:19:40.492Z,95569.22
2022-10-31T22:22:08.143Z,95564.38
2022-10-31T22:24:36.130Z,95566.75
2022-10-31T22:27:03.770Z,95558.53
2022-10-31T22:29:31.445Z,95565.91
2022-10-31T22:32:01.978Z,95566.19
2022-10-31T22:34:30.569Z,95571.38
2022-10-31T22:36:58.316Z,95600.81
2022-10-31T22:39:26.047Z,95603.50
2022-10-31T22:41:53.757Z,95589.25
2022-10-31T22:44:21.738Z,95600.31
2022-10-31T22:46:49.363Z,95601.88
2022-10-31T22:49:19.106Z,95606.72
2022-10-31T22:51:47.047Z,95601.72
2022-10-31T22:54:17.453Z,95598.78
2022-10-31T22:56:45.987Z,95600.13
2022-10-31T22:59:15.002Z,95602.00
2022-10-31T23:01:45.144Z,95598.97
2022-10-31T23:04:13.507Z,95605.47
2022-10-31T23:06:43.253Z,95599.53
2022-10-31T23:09:15.055Z,95608.75
2022-10-31T23:11:44.095Z,95606.19
2022-10-31T23:14:14.252Z,95604.56
2022-10-31T23:16:46.170Z,95606.81
2022-10-31T23:19:16.375Z,95610.16
2022-10-31T23:21:59.478Z,95610.72
2022-10-31T23:24:36.203Z,95598.78
2022-10-31T23:27:11.026Z,95593.97
2022-10-31T23:29:45.446Z,95601.13
2022-10-31T23:32:17.912Z,95602.81
2022-10-31T23:34:47.081Z,95604.50
2022-10-31T23:37:17.232Z,95604.53
2022-10-31T23:39:45.693Z,95602.09
2022-10-31T23:42:13.731Z,95605.34
2022-10-31T23:44:41.517Z,95599.22
2022-10-31T23:47:09.819Z,95599.25
2022-10-31T23:49:38.125Z,95593.13
2022-10-31T23:52:06.762Z,95587.41
2022-10-31T23:54:36.712Z,95590.47
2022-10-31T23:57:04.920Z,95590.91
2022-10-31T23:59:32.993Z,95593.09
